createdAt,value
2023-02-12T00:06:01.372Z,3.00
2023-02-12T00:08:29.790Z,3.00
2023-02-12T00:10:57.827Z,3.00
2023-02-12T00:13:25.895Z,3.00
2023-02-12T00:15:55.589Z,3.00
2023-02-12T00:18:23.695Z,2.90
2023-02-12T00:20:51.612Z,2.90
2023-02-12T00:28:16.349Z,2.70
2023-02-12T00:30:44.531Z,2.70
2023-02-12T00:33:13.959Z,2.70
2023-02-12T00:38:10.343Z,2.70
2023-02-12T00:40:38.418Z,2.80
2023-02-12T00:43:06.727Z,2.80
2023-02-12T00:45:34.748Z,2.80
2023-02-12T00:48:02.717Z,2.90
2023-02-12T00:53:00.467Z,3.00
2023-02-12T00:55:28.601Z,3.00
2023-02-12T00:57:56.683Z,3.00
2023-02-12T01:00:24.791Z,3.00
2023-02-12T01:02:52.812Z,3.00
2023-02-12T01:05:20.844Z,3.00
2023-02-12T01:07:52.457Z,3.00
2023-02-12T01:10:22.008Z,3.00
2023-02-12T01:15:19.156Z,2.90
2023-02-12T01:20:19.212Z,2.90
2023-02-12T01:22:47.507Z,2.90
2023-02-12T01:25:20.117Z,2.90
2023-02-12T01:27:48.458Z,2.90
2023-02-12T01:30:17.820Z,3.00
2023-02-12T01:32:45.826Z,3.00
2023-02-12T01:35:13.726Z,3.00
2023-02-12T01:37:41.888Z,3.00
2023-02-12T01:40:13.715Z,2.90
2023-02-12T01:42:43.121Z,2.90
2023-02-12T01:45:55.815Z,2.90
2023-02-12T01:48:26.805Z,2.90
2023-02-12T01:50:56.637Z,2.80
2023-02-12T01:53:29.447Z,2.80
2023-02-12T01:56:01.962Z,2.70
2023-02-12T01:58:36.295Z,2.60
2023-02-12T02:01:07.364Z,2.80
2023-02-12T02:03:37.157Z,2.70
2023-02-12T02:06:10.829Z,2.70
2023-02-12T02:08:39.749Z,2.70
2023-02-12T02:11:27.734Z,2.70
2023-02-12T02:14:15.176Z,1.60
2023-02-12T02:16:48.384Z,2.70
2023-02-12T02:19:31.480Z,2.70
2023-02-12T02:22:17.579Z,2.70
2023-02-12T02:25:17.240Z,2.80
2023-02-12T02:27:54.276Z,2.70
2023-02-12T02:30:36.751Z,2.70
2023-02-12T02:33:24.131Z,2.70
2023-02-12T02:35:56.943Z,2.70
2023-02-12T02:38:32.866Z,2.70
2023-02-12T02:41:06.463Z,2.70
2023-02-12T02:43:39.348Z,2.70
2023-02-12T02:46:13.127Z,2.70
2023-02-12T02:48:46.309Z,2.80
2023-02-12T02:51:19.407Z,2.70
2023-02-12T02:53:50.706Z,2.70
2023-02-12T02:56:21.313Z,2.70
2023-02-12T02:58:54.137Z,2.70
2023-02-12T03:01:29.576Z,2.70
2023-02-12T03:04:02.592Z,2.60
2023-02-12T03:06:40.061Z,2.60
2023-02-12T03:09:17.210Z,2.60
2023-02-12T03:11:46.306Z,2.60
2023-02-12T03:14:18.930Z,2.60
2023-02-12T03:16:54.233Z,2.60
2023-02-12T03:19:26.206Z,2.50
2023-02-12T03:21:58.354Z,2.50
2023-02-12T03:24:31.759Z,2.50
2023-02-12T03:27:05.138Z,2.50
2023-02-12T03:29:33.852Z,2.40
2023-02-12T03:32:16.405Z,2.40
2023-02-12T03:34:51.574Z,2.30
2023-02-12T03:37:26.508Z,2.30
2023-02-12T03:39:59.736Z,2.30
2023-02-12T03:42:37.020Z,2.30
2023-02-12T03:45:11.588Z,2.30
2023-02-12T03:47:47.711Z,2.30
2023-02-12T03:50:18.941Z,2.30
2023-02-12T03:52:48.200Z,2.30
2023-02-12T03:55:17.459Z,2.30
2023-02-12T03:57:49.188Z,2.30
2023-02-12T04:00:20.557Z,2.30
2023-02-12T04:02:50.351Z,2.30
2023-02-12T04:05:20.734Z,2.20
2023-02-12T04:07:49.668Z,2.20
2023-02-12T04:10:18.152Z,2.30
2023-02-12T04:12:54.422Z,2.30
2023-02-12T04:15:58.160Z,2.30
2023-02-12T04:18:49.493Z,2.30
2023-02-12T04:21:31.952Z,2.30
2023-02-12T04:24:07.038Z,2.30
2023-02-12T04:26:39.209Z,2.30
2023-02-12T04:29:16.559Z,2.30
2023-02-12T04:31:50.421Z,2.20
2023-02-12T04:34:28.198Z,2.30
2023-02-12T04:37:01.586Z,2.30
2023-02-12T04:39:32.739Z,2.30
2023-02-12T04:42:01.470Z,2.40
2023-02-12T04:44:31.808Z,2.30
2023-02-12T04:46:59.964Z,2.30
2023-02-12T04:49:29.748Z,2.30
2023-02-12T04:51:58.101Z,2.30
2023-02-12T04:54:26.265Z,2.30
2023-02-12T04:56:54.243Z,2.30
2023-02-12T05:01:50.716Z,2.30
2023-02-12T05:04:19.888Z,2.30
2023-02-12T05:06:49.340Z,2.30
2023-02-12T05:09:19.308Z,2.30
2023-02-12T05:11:47.539Z,2.30
2023-02-12T05:16:44.135Z,2.20
2023-02-12T05:19:12.473Z,2.20
2023-02-12T05:21:40.553Z,2.10
2023-02-12T05:24:10.310Z,2.20
2023-02-12T05:26:38.411Z,2.20
2023-02-12T05:29:06.456Z,2.20
2023-02-12T05:31:34.536Z,2.20
2023-02-12T05:34:02.849Z,2.20
2023-02-12T05:36:30.853Z,2.20
2023-02-12T05:39:00.463Z,2.20
2023-02-12T05:41:34.754Z,2.20
2023-02-12T05:46:32.162Z,2.20
2023-02-12T05:49:00.170Z,2.20
2023-02-12T05:51:30.882Z,2.20
2023-02-12T05:54:01.248Z,2.10
2023-02-12T05:56:32.245Z,2.10
2023-02-12T05:59:02.350Z,2.10
2023-02-12T06:01:33.273Z,2.10
2023-02-12T06:04:01.824Z,2.10
2023-02-12T06:06:30.731Z,2.10
2023-02-12T06:08:59.378Z,2.00
2023-02-12T06:11:27.429Z,2.10
2023-02-12T06:13:56.761Z,2.10
2023-02-12T06:16:26.274Z,2.10
2023-02-12T06:18:56.044Z,2.00
2023-02-12T06:21:25.607Z,2.00
2023-02-12T06:23:53.923Z,2.00
2023-02-12T06:26:22.094Z,2.00
2023-02-12T06:28:50.325Z,2.00
2023-02-12T06:31:25.436Z,2.00
2023-02-12T06:33:55.112Z,1.90
2023-02-12T06:36:23.751Z,2.00
2023-02-12T06:38:51.986Z,2.00
2023-02-12T06:41:20.367Z,2.00
2023-02-12T06:43:48.595Z,2.00
2023-02-12T06:46:17.072Z,2.00
2023-02-12T06:48:46.542Z,2.10
2023-02-12T06:51:16.360Z,2.10
2023-02-12T06:53:45.208Z,2.40
2023-02-12T06:56:14.610Z,2.10
2023-02-12T06:58:44.515Z,2.10
2023-02-12T07:01:15.074Z,2.20
2023-02-12T07:03:43.728Z,2.20
2023-02-12T07:06:13.146Z,2.20
2023-02-12T07:08:41.220Z,2.20
2023-02-12T07:11:09.539Z,2.30
2023-02-12T07:13:37.750Z,2.40
2023-02-12T07:16:07.276Z,2.40
2023-02-12T07:18:35.353Z,2.40
2023-02-12T07:21:03.530Z,2.40
2023-02-12T07:23:33.471Z,2.50
2023-02-12T07:26:03.444Z,2.50
2023-02-12T07:28:33.727Z,2.60
2023-02-12T07:31:06.901Z,2.60
2023-02-12T07:33:35.279Z,2.60
2023-02-12T07:36:04.128Z,2.60
2023-02-12T07:38:36.001Z,2.60
2023-02-12T07:41:15.004Z,2.70
2023-02-12T07:43:44.453Z,2.70
2023-02-12T07:46:14.433Z,2.70
2023-02-12T07:48:42.482Z,2.60
2023-02-12T07:51:12.607Z,2.70
2023-02-12T07:53:42.647Z,2.70
2023-02-12T07:56:12.503Z,2.70
2023-02-12T07:58:41.844Z,2.70
2023-02-12T08:01:14.553Z,2.80
2023-02-12T08:06:12.358Z,3.00
2023-02-12T08:08:41.747Z,5.70
2023-02-12T08:11:11.140Z,3.00
2023-02-12T08:13:39.563Z,3.10
2023-02-12T08:16:09.730Z,3.00
2023-02-12T08:18:38.102Z,3.00
2023-02-12T08:21:07.750Z,3.10
2023-02-12T08:23:36.685Z,3.20
2023-02-12T08:26:11.344Z,3.30
2023-02-12T08:28:41.787Z,3.40
2023-02-12T08:31:12.206Z,3.60
2023-02-12T08:36:10.939Z,3.80
2023-02-12T08:38:39.893Z,3.80
2023-02-12T08:41:10.886Z,3.80
2023-02-12T08:43:40.352Z,3.80
2023-02-12T08:46:10.179Z,3.80
2023-02-12T08:48:38.654Z,3.90
2023-02-12T08:51:08.986Z,3.80
2023-02-12T08:56:05.900Z,3.80
2023-02-12T08:58:35.820Z,4.00
2023-02-12T09:01:04.362Z,4.10
2023-02-12T09:03:32.560Z,4.10
2023-02-12T09:06:03.062Z,4.20
2023-02-12T09:08:31.268Z,4.10
2023-02-12T09:10:59.329Z,4.20
2023-02-12T09:13:27.372Z,4.20
2023-02-12T09:15:56.956Z,4.20
2023-02-12T09:20:53.653Z,4.40
2023-02-12T09:23:22.007Z,4.40
2023-02-12T09:26:00.866Z,4.50
2023-02-12T09:33:28.126Z,4.70
2023-02-12T09:38:24.920Z,4.70
2023-02-12T09:41:13.333Z,4.80
2023-02-12T09:43:44.620Z,4.60
2023-02-12T09:46:21.298Z,4.60
2023-02-12T09:48:58.131Z,4.60
2023-02-12T09:51:26.869Z,4.70
2023-02-12T09:54:04.115Z,4.70
2023-02-12T09:56:32.472Z,4.80
2023-02-12T09:59:03.269Z,4.80
2023-02-12T10:01:32.699Z,5.40
2023-02-12T10:04:01.239Z,4.60
2023-02-12T10:06:31.920Z,4.70
2023-02-12T10:09:25.332Z,4.70
2023-02-12T10:12:01.652Z,4.60
2023-02-12T10:14:50.463Z,4.70
2023-02-12T10:17:28.554Z,4.70
2023-02-12T10:20:12.968Z,4.70
2023-02-12T10:22:56.754Z,4.60
2023-02-12T10:25:29.843Z,4.60
2023-02-12T10:27:59.067Z,4.70
2023-02-12T10:30:32.750Z,4.70
2023-02-12T10:33:07.494Z,4.90
2023-02-12T10:35:36.561Z,5.10
2023-02-12T10:38:07.394Z,5.20
2023-02-12T10:40:39.052Z,5.10
2023-02-12T10:43:09.040Z,5.20
2023-02-12T10:45:40.047Z,5.30
2023-02-12T10:48:14.487Z,5.30
2023-02-12T10:50:51.088Z,5.30
2023-02-12T10:53:23.184Z,5.40
2023-02-12T10:55:51.587Z,6.40
2023-02-12T10:58:22.966Z,5.40
2023-02-12T11:00:59.181Z,5.40
2023-02-12T11:03:34.385Z,5.40
2023-02-12T11:06:15.545Z,5.00
2023-02-12T11:08:43.914Z,5.00
2023-02-12T11:11:15.133Z,5.00
2023-02-12T11:13:46.770Z,5.00
2023-02-12T11:16:14.928Z,5.00
2023-02-12T11:18:44.880Z,5.00
2023-02-12T11:21:14.164Z,5.20
2023-02-12T11:23:43.968Z,5.40
2023-02-12T11:26:26.363Z,5.50
2023-02-12T11:28:57.283Z,5.50
2023-02-12T11:31:26.451Z,5.70
2023-02-12T11:34:16.428Z,6.00
2023-02-12T11:36:46.744Z,5.90
2023-02-12T11:39:24.904Z,6.00
2023-02-12T11:41:55.763Z,6.10
2023-02-12T11:44:27.592Z,6.00
2023-02-12T11:47:02.074Z,6.10
2023-02-12T11:49:35.081Z,6.20
2023-02-12T11:52:05.195Z,6.20
2023-02-12T11:54:40.751Z,6.10
2023-02-12T11:57:11.770Z,6.20
2023-02-12T11:59:44.034Z,6.10
2023-02-12T12:02:25.881Z,6.20
2023-02-12T12:05:09.160Z,6.30
2023-02-12T12:07:40.015Z,6.40
2023-02-12T12:10:16.885Z,6.40
2023-02-12T12:12:50.230Z,6.60
2023-02-12T12:15:41.096Z,6.30
2023-02-12T12:18:40.448Z,6.30
2023-02-12T12:21:17.809Z,6.30
2023-02-12T12:23:52.775Z,6.50
2023-02-12T12:26:25.244Z,6.40
2023-02-12T12:29:01.181Z,6.40
2023-02-12T12:31:35.093Z,6.40
2023-02-12T12:34:08.423Z,6.30
2023-02-12T12:37:06.293Z,6.30
2023-02-12T12:39:41.345Z,6.40
2023-02-12T12:42:48.331Z,6.50
2023-02-12T12:45:30.415Z,6.60
2023-02-12T12:48:14.087Z,6.70
2023-02-12T12:50:58.788Z,6.60
2023-02-12T12:53:43.518Z,6.50
2023-02-12T12:56:35.928Z,6.60
2023-02-12T12:59:38.508Z,6.40
2023-02-12T13:02:51.592Z,6.50
2023-02-12T13:05:48.320Z,6.50
2023-02-12T13:08:25.722Z,6.50
2023-02-12T13:10:59.722Z,7.10
2023-02-12T13:13:32.641Z,6.30
2023-02-12T13:16:07.508Z,6.40
2023-02-12T13:18:46.810Z,6.40
2023-02-12T13:21:19.948Z,6.50
2023-02-12T13:23:55.420Z,6.70
2023-02-12T13:26:31.473Z,6.70
2023-02-12T13:29:05.536Z,6.60
2023-02-12T13:31:40.280Z,6.50
2023-02-12T13:34:13.386Z,6.40
2023-02-12T13:36:43.688Z,6.40
2023-02-12T13:39:19.693Z,6.30
2023-02-12T13:41:57.943Z,6.40
2023-02-12T13:44:33.031Z,6.60
2023-02-12T13:47:09.272Z,6.70
2023-02-12T13:49:46.504Z,6.90
2023-02-12T13:52:23.750Z,7.30
2023-02-12T13:55:05.761Z,7.20
2023-02-12T14:02:53.381Z,7.40
2023-02-12T14:05:32.697Z,7.50
2023-02-12T14:08:05.973Z,7.80
2023-02-12T14:10:37.576Z,7.90
2023-02-12T14:13:21.165Z,7.80
2023-02-12T14:15:54.420Z,7.40
2023-02-12T14:18:32.800Z,7.00
2023-02-12T14:21:43.515Z,6.90
2023-02-12T14:24:49.328Z,6.90
2023-02-12T14:27:27.174Z,6.90
2023-02-12T14:30:29.295Z,6.80
2023-02-12T14:33:12.876Z,6.80
2023-02-12T14:35:42.509Z,6.80
2023-02-12T14:39:01.736Z,6.90
2023-02-12T14:41:41.860Z,7.10
2023-02-12T14:44:38.528Z,7.30
2023-02-12T14:47:17.260Z,7.70
2023-02-12T14:49:48.497Z,7.70
2023-02-12T14:52:20.782Z,7.60
2023-02-12T14:54:51.804Z,8.00
2023-02-12T14:57:27.047Z,8.80
2023-02-12T14:59:59.015Z,9.30
2023-02-12T15:02:31.104Z,9.30
2023-02-12T15:05:03.329Z,9.10
2023-02-12T15:07:36.718Z,9.10
2023-02-12T15:10:10.691Z,9.10
2023-02-12T15:12:43.712Z,8.90
2023-02-12T15:15:19.480Z,9.00
2023-02-12T15:17:57.903Z,9.70
2023-02-12T15:20:32.683Z,10.20
2023-02-12T15:25:31.762Z,10.20
2023-02-12T15:28:02.719Z,10.70
2023-02-12T15:30:33.639Z,10.90
2023-02-12T15:33:06.100Z,11.10
2023-02-12T15:35:36.990Z,10.70
2023-02-12T15:38:07.737Z,9.60
2023-02-12T15:40:36.442Z,9.10
2023-02-12T15:43:06.211Z,8.60
2023-02-12T15:45:36.116Z,8.10
2023-02-12T15:48:13.900Z,7.70
2023-02-12T15:50:52.372Z,7.20
2023-02-12T15:53:27.101Z,6.80
2023-02-12T15:55:55.534Z,6.60
2023-02-12T15:58:26.415Z,6.20
2023-02-12T16:00:55.368Z,6.10
2023-02-12T16:03:27.481Z,5.80
2023-02-12T16:05:58.926Z,5.60
2023-02-12T16:10:57.508Z,5.20
2023-02-12T16:13:31.437Z,5.10
2023-02-12T16:16:08.379Z,4.90
2023-02-12T16:18:37.719Z,4.60
2023-02-12T16:21:08.575Z,4.50
2023-02-12T16:23:37.019Z,4.30
2023-02-12T16:26:06.786Z,4.20
2023-02-12T16:31:12.482Z,4.00
2023-02-12T16:33:48.611Z,3.90
2023-02-12T16:36:30.467Z,3.80
2023-02-12T16:39:00.587Z,3.60
2023-02-12T16:41:30.969Z,3.50
2023-02-12T16:44:29.363Z,3.40
2023-02-12T16:46:59.719Z,3.30
2023-02-12T16:49:29.303Z,3.20
2023-02-12T16:52:36.171Z,3.10
2023-02-12T16:55:04.189Z,2.90
2023-02-12T16:57:32.095Z,2.80
2023-02-12T17:00:00.166Z,2.60
2023-02-12T17:05:01.036Z,2.40
2023-02-12T17:07:31.091Z,2.30
2023-02-12T17:09:59.184Z,2.20
2023-02-12T17:12:27.476Z,2.10
2023-02-12T17:19:53.352Z,1.80
2023-02-12T17:22:25.470Z,1.70
2023-02-12T17:24:53.557Z,1.60
2023-02-12T17:27:21.687Z,1.50
2023-02-12T17:32:18.411Z,1.50
2023-02-12T17:34:48.870Z,1.40
2023-02-12T17:37:18.145Z,1.30
2023-02-12T17:39:47.787Z,1.20
2023-02-12T17:42:15.721Z,1.20
2023-02-12T17:47:15.006Z,1.10
2023-02-12T17:49:43.427Z,1.10
2023-02-12T17:57:13.059Z,0.90
2023-02-12T17:59:41.922Z,0.90
2023-02-12T18:02:11.595Z,0.80
2023-02-12T18:09:38.832Z,0.60
2023-02-12T18:12:07.171Z,0.50
2023-02-12T18:14:36.607Z,0.40
2023-02-12T18:17:04.545Z,0.40
2023-02-12T18:22:00.985Z,0.30
2023-02-12T18:32:00.115Z,0.00
2023-02-12T18:39:24.866Z,0.00
2023-02-12T18:49:22.795Z,-0.10
2023-02-12T19:04:16.127Z,-0.20
2023-02-12T19:06:47.743Z,-0.20
2023-02-12T19:09:17.384Z,-0.30
2023-02-12T19:19:15.161Z,-0.60
2023-02-12T19:24:14.723Z,-0.70
2023-02-12T19:31:44.584Z,-0.70
2023-02-12T19:34:19.560Z,0.60
2023-02-12T19:36:49.495Z,-0.80
2023-02-12T19:39:22.030Z,-0.80
2023-02-12T19:44:20.211Z,-0.90
2023-02-12T19:46:49.356Z,-0.90
2023-02-12T19:49:19.868Z,-0.90
2023-02-12T19:54:20.017Z,-0.90
2023-02-12T19:59:18.677Z,-1.10
2023-02-12T20:04:17.919Z,-1.20
2023-02-12T20:11:44.843Z,-1.30
2023-02-12T20:14:14.824Z,-1.30
2023-02-12T20:19:15.569Z,-1.40
2023-02-12T20:21:44.580Z,-1.50
2023-02-12T20:24:12.676Z,-1.50
2023-02-12T20:29:10.777Z,-1.60
2023-02-12T20:34:09.948Z,-1.60
2023-02-12T20:36:39.295Z,-1.60
2023-02-12T20:39:09.143Z,-1.70
2023-02-12T20:44:06.706Z,-1.70
2023-02-12T20:46:39.222Z,-1.70
2023-02-12T20:51:36.655Z,-1.70
2023-02-12T20:54:05.459Z,-1.80
2023-02-12T20:56:35.640Z,-1.80
2023-02-12T21:01:36.027Z,-1.80
2023-02-12T21:04:06.578Z,-1.90
2023-02-12T21:14:20.893Z,-2.00
2023-02-12T21:16:50.345Z,-1.90
2023-02-12T21:24:17.559Z,-2.00
2023-02-12T21:31:44.724Z,-1.90
2023-02-12T21:34:16.130Z,-1.80
2023-02-12T21:36:46.217Z,-1.70
2023-02-12T21:39:15.845Z,-1.70
2023-02-12T21:44:14.439Z,-1.60
2023-02-12T21:49:14.603Z,-1.60
2023-02-12T21:51:44.049Z,-1.50
2023-02-12T21:54:16.716Z,-1.50
2023-02-12T21:56:46.906Z,-1.50
2023-02-12T22:01:45.435Z,-1.50
2023-02-12T22:04:15.058Z,-1.50
2023-02-12T22:06:45.809Z,-1.50
2023-02-12T22:09:16.552Z,-1.40
2023-02-12T22:14:14.689Z,-1.40
2023-02-12T22:21:42.518Z,-1.40
2023-02-12T22:24:13.571Z,-1.40
2023-02-12T22:29:12.528Z,-1.30
2023-02-12T22:31:42.855Z,-1.30
2023-02-12T22:34:13.590Z,-1.40
2023-02-12T22:36:43.888Z,-1.40
2023-02-12T22:39:13.810Z,-1.40
2023-02-12T22:41:43.092Z,-1.30
2023-02-12T22:44:12.546Z,-1.30
2023-02-12T22:54:12.337Z,-1.10
2023-02-12T23:09:05.202Z,-0.90
2023-02-12T23:11:35.171Z,-0.80
2023-02-12T23:19:01.575Z,-0.80
2023-02-12T23:21:31.495Z,-0.70
2023-02-12T23:26:29.039Z,-0.70
2023-02-12T23:28:59.130Z,-0.70
2023-02-12T23:31:27.329Z,-0.70
2023-02-12T23:46:18.283Z,-0.70
2023-02-12T23:48:46.253Z,-0.60
2023-02-12T23:58:39.171Z,-0.60
